sensor_id;sensor_type;location;lat;lon;timestamp;P1;durP1;ratioP1;P2;durP2;ratioP2
15192;SDS011;7697;51.630;7.484;2022-11-23T00:03:16;2.05;;;1.30;;
15192;SDS011;7697;51.630;7.484;2022-11-23T00:08:19;3.15;;;1.67;;
15192;SDS011;7697;51.630;7.484;2022-11-23T00:13:23;4.50;;;1.60;;
15192;SDS011;7697;51.630;7.484;2022-11-23T00:18:25;5.95;;;1.60;;
15192;SDS011;7697;51.630;7.484;2022-11-23T00:23:29;3.90;;;1.40;;
15192;SDS011;7697;51.630;7.484;2022-11-23T00:28:31;3.63;;;1.65;;
15192;SDS011;7697;51.630;7.484;2022-11-23T00:33:34;2.35;;;1.20;;
15192;SDS011;7697;51.630;7.484;2022-11-23T00:38:37;5.50;;;1.80;;
15192;SDS011;7697;51.630;7.484;2022-11-23T00:43:40;4.40;;;1.60;;
15192;SDS011;7697;51.630;7.484;2022-11-23T00:48:44;4.40;;;1.67;;
15192;SDS011;7697;51.630;7.484;2022-11-23T00:53:49;4.18;;;1.77;;
15192;SDS011;7697;51.630;7.484;2022-11-23T00:58:52;3.85;;;1.38;;
15192;SDS011;7697;51.630;7.484;2022-11-23T01:03:59;3.35;;;1.42;;
15192;SDS011;7697;51.630;7.484;2022-11-23T01:09:04;3.63;;;1.30;;
15192;SDS011;7697;51.630;7.484;2022-11-23T01:14:08;2.72;;;1.30;;
15192;SDS011;7697;51.630;7.484;2022-11-23T01:19:10;4.85;;;1.80;;
15192;SDS011;7697;51.630;7.484;2022-11-23T01:24:21;4.47;;;1.70;;
15192;SDS011;7697;51.630;7.484;2022-11-23T01:29:24;4.57;;;1.50;;
15192;SDS011;7697;51.630;7.484;2022-11-23T01:34:26;4.40;;;1.38;;
15192;SDS011;7697;51.630;7.484;2022-11-23T01:39:29;5.13;;;1.67;;
15192;SDS011;7697;51.630;7.484;2022-11-23T01:44:31;4.97;;;1.60;;
15192;SDS011;7697;51.630;7.484;2022-11-23T01:49:35;2.42;;;1.55;;
15192;SDS011;7697;51.630;7.484;2022-11-23T01:54:45;3.00;;;1.35;;
15192;SDS011;7697;51.630;7.484;2022-11-23T01:59:51;5.88;;;1.50;;
15192;SDS011;7697;51.630;7.484;2022-11-23T02:04:54;6.65;;;1.98;;
15192;SDS011;7697;51.630;7.484;2022-11-23T02:10:00;3.90;;;1.40;;
15192;SDS011;7697;51.630;7.484;2022-11-23T02:15:02;6.07;;;1.65;;
15192;SDS011;7697;51.630;7.484;2022-11-23T02:20:06;3.42;;;1.40;;
15192;SDS011;7697;51.630;7.484;2022-11-23T02:25:13;5.57;;;1.90;;
15192;SDS011;7697;51.630;7.484;2022-11-23T02:30:21;4.45;;;1.40;;
15192;SDS011;7697;51.630;7.484;2022-11-23T02:35:23;3.58;;;1.40;;
15192;SDS011;7697;51.630;7.484;2022-11-23T02:40:26;5.05;;;1.70;;
15192;SDS011;7697;51.630;7.484;2022-11-23T02:45:35;4.53;;;1.67;;
15192;SDS011;7697;51.630;7.484;2022-11-23T02:50:40;3.38;;;1.30;;
15192;SDS011;7697;51.630;7.484;2022-11-23T02:55:41;4.25;;;1.80;;
15192;SDS011;7697;51.630;7.484;2022-11-23T03:00:44;2.97;;;1.30;;
15192;SDS011;7697;51.630;7.484;2022-11-23T03:05:46;2.33;;;1.38;;
15192;SDS011;7697;51.630;7.484;2022-11-23T03:10:48;2.20;;;1.23;;
15192;SDS011;7697;51.630;7.484;2022-11-23T03:15:53;5.22;;;1.20;;
15192;SDS011;7697;51.630;7.484;2022-11-23T03:21:00;2.67;;;1.30;;
15192;SDS011;7697;51.630;7.484;2022-11-23T03:26:02;3.10;;;1.27;;
15192;SDS011;7697;51.630;7.484;2022-11-23T03:31:06;2.65;;;1.38;;
15192;SDS011;7697;51.630;7.484;2022-11-23T03:36:08;3.60;;;1.40;;
15192;SDS011;7697;51.630;7.484;2022-11-23T03:41:09;2.42;;;1.20;;
15192;SDS011;7697;51.630;7.484;2022-11-23T03:46:12;4.30;;;1.60;;
15192;SDS011;7697;51.630;7.484;2022-11-23T03:51:14;4.90;;;1.55;;
15192;SDS011;7697;51.630;7.484;2022-11-23T03:56:16;2.70;;;1.23;;
15192;SDS011;7697;51.630;7.484;2022-11-23T04:01:20;5.65;;;1.88;;
15192;SDS011;7697;51.630;7.484;2022-11-23T04:06:22;5.97;;;1.80;;
15192;SDS011;7697;51.630;7.484;2022-11-23T04:11:23;3.20;;;1.47;;
15192;SDS011;7697;51.630;7.484;2022-11-23T04:16:26;2.80;;;1.30;;
15192;SDS011;7697;51.630;7.484;2022-11-23T04:21:28;2.42;;;1.20;;
15192;SDS011;7697;51.630;7.484;2022-11-23T04:26:30;1.90;;;1.33;;
15192;SDS011;7697;51.630;7.484;2022-11-23T04:31:33;2.15;;;1.30;;
15192;SDS011;7697;51.630;7.484;2022-11-23T04:36:34;2.75;;;1.33;;
15192;SDS011;7697;51.630;7.484;2022-11-23T04:41:36;2.13;;;1.40;;
15192;SDS011;7697;51.630;7.484;2022-11-23T04:46:39;2.40;;;1.35;;
15192;SDS011;7697;51.630;7.484;2022-11-23T04:51:41;2.22;;;1.10;;
15192;SDS011;7697;51.630;7.484;2022-11-23T04:56:43;2.28;;;1.40;;
15192;SDS011;7697;51.630;7.484;2022-11-23T05:01:46;2.97;;;1.40;;
15192;SDS011;7697;51.630;7.484;2022-11-23T05:06:47;1.40;;;0.93;;
15192;SDS011;7697;51.630;7.484;2022-11-23T05:11:49;3.00;;;1.30;;
15192;SDS011;7697;51.630;7.484;2022-11-23T05:16:52;2.20;;;1.30;;
15192;SDS011;7697;51.630;7.484;2022-11-23T05:21:54;2.17;;;1.17;;
15192;SDS011;7697;51.630;7.484;2022-11-23T05:26:55;1.88;;;1.00;;
15192;SDS011;7697;51.630;7.484;2022-11-23T05:31:58;5.03;;;1.40;;
15192;SDS011;7697;51.630;7.484;2022-11-23T05:37:00;2.15;;;1.23;;
15192;SDS011;7697;51.630;7.484;2022-11-23T05:42:02;3.65;;;1.42;;
15192;SDS011;7697;51.630;7.484;2022-11-23T05:47:05;1.73;;;1.10;;
15192;SDS011;7697;51.630;7.484;2022-11-23T05:52:07;3.17;;;1.40;;
15192;SDS011;7697;51.630;7.484;2022-11-23T05:57:08;4.47;;;1.67;;
15192;SDS011;7697;51.630;7.484;2022-11-23T06:02:12;3.50;;;1.67;;
15192;SDS011;7697;51.630;7.484;2022-11-23T06:07:14;6.70;;;2.00;;
15192;SDS011;7697;51.630;7.484;2022-11-23T06:12:15;5.03;;;2.10;;
15192;SDS011;7697;51.630;7.484;2022-11-23T06:17:18;3.55;;;1.80;;
15192;SDS011;7697;51.630;7.484;2022-11-23T06:22:20;5.22;;;2.50;;
15192;SDS011;7697;51.630;7.484;2022-11-23T06:27:22;5.07;;;2.00;;
15192;SDS011;7697;51.630;7.484;2022-11-23T06:32:25;5.30;;;2.17;;
15192;SDS011;7697;51.630;7.484;2022-11-23T06:37:26;5.93;;;2.33;;
15192;SDS011;7697;51.630;7.484;2022-11-23T06:42:28;3.63;;;1.73;;
15192;SDS011;7697;51.630;7.484;2022-11-23T06:47:31;5.22;;;1.95;;
15192;SDS011;7697;51.630;7.484;2022-11-23T06:52:33;4.97;;;2.00;;
15192;SDS011;7697;51.630;7.484;2022-11-23T06:57:34;5.28;;;1.83;;
15192;SDS011;7697;51.630;7.484;2022-11-23T07:02:38;4.40;;;1.40;;
15192;SDS011;7697;51.630;7.484;2022-11-23T07:07:39;4.43;;;1.75;;
15192;SDS011;7697;51.630;7.484;2022-11-23T07:12:41;5.05;;;1.70;;
15192;SDS011;7697;51.630;7.484;2022-11-23T07:17:44;6.57;;;1.73;;
15192;SDS011;7697;51.630;7.484;2022-11-23T07:22:45;3.20;;;1.60;;
15192;SDS011;7697;51.630;7.484;2022-11-23T07:27:51;3.75;;;1.80;;
15192;SDS011;7697;51.630;7.484;2022-11-23T07:32:59;3.17;;;1.60;;
15192;SDS011;7697;51.630;7.484;2022-11-23T07:38:01;3.92;;;1.52;;
15192;SDS011;7697;51.630;7.484;2022-11-23T07:43:05;3.70;;;1.50;;
15192;SDS011;7697;51.630;7.484;2022-11-23T07:48:09;4.00;;;1.60;;
15192;SDS011;7697;51.630;7.484;2022-11-23T07:53:12;3.25;;;1.50;;
15192;SDS011;7697;51.630;7.484;2022-11-23T07:58:14;4.38;;;1.50;;
15192;SDS011;7697;51.630;7.484;2022-11-23T08:03:17;5.50;;;1.85;;
15192;SDS011;7697;51.630;7.484;2022-11-23T08:08:19;5.68;;;1.75;;
15192;SDS011;7697;51.630;7.484;2022-11-23T08:13:21;4.57;;;1.50;;
15192;SDS011;7697;51.630;7.484;2022-11-23T08:18:24;6.15;;;2.10;;
15192;SDS011;7697;51.630;7.484;2022-11-23T08:23:26;5.45;;;1.88;;
15192;SDS011;7697;51.630;7.484;2022-11-23T08:28:28;4.13;;;1.55;;
15192;SDS011;7697;51.630;7.484;2022-11-23T08:33:31;7.13;;;1.95;;
15192;SDS011;7697;51.630;7.484;2022-11-23T08:38:33;6.13;;;2.03;;
15192;SDS011;7697;51.630;7.484;2022-11-23T08:43:35;9.23;;;2.50;;
15192;SDS011;7697;51.630;7.484;2022-11-23T08:48:38;8.02;;;1.90;;
15192;SDS011;7697;51.630;7.484;2022-11-23T08:53:40;5.18;;;1.80;;
15192;SDS011;7697;51.630;7.484;2022-11-23T08:58:41;6.03;;;1.80;;
15192;SDS011;7697;51.630;7.484;2022-11-23T09:03:44;3.88;;;1.70;;
15192;SDS011;7697;51.630;7.484;2022-11-23T09:08:46;2.40;;;1.30;;
15192;SDS011;7697;51.630;7.484;2022-11-23T09:13:48;3.33;;;1.67;;
15192;SDS011;7697;51.630;7.484;2022-11-23T09:18:53;6.25;;;2.00;;
15192;SDS011;7697;51.630;7.484;2022-11-23T09:23:55;8.77;;;1.77;;
15192;SDS011;7697;51.630;7.484;2022-11-23T09:28:58;6.05;;;2.08;;
15192;SDS011;7697;51.630;7.484;2022-11-23T09:34:01;4.15;;;1.80;;
15192;SDS011;7697;51.630;7.484;2022-11-23T09:39:03;5.78;;;1.83;;
15192;SDS011;7697;51.630;7.484;2022-11-23T09:44:05;3.60;;;1.77;;
15192;SDS011;7697;51.630;7.484;2022-11-23T09:49:17;7.20;;;1.77;;
15192;SDS011;7697;51.630;7.484;2022-11-23T09:54:23;6.28;;;2.00;;
15192;SDS011;7697;51.630;7.484;2022-11-23T09:59:38;6.28;;;2.05;;
15192;SDS011;7697;51.630;7.484;2022-11-23T10:04:43;5.35;;;1.70;;
15192;SDS011;7697;51.630;7.484;2022-11-23T10:09:47;6.90;;;2.08;;
15192;SDS011;7697;51.630;7.484;2022-11-23T10:15:00;6.25;;;2.30;;
15192;SDS011;7697;51.630;7.484;2022-11-23T10:20:16;5.65;;;1.70;;
15192;SDS011;7697;51.630;7.484;2022-11-23T10:25:27;5.28;;;1.85;;
15192;SDS011;7697;51.630;7.484;2022-11-23T10:30:39;6.90;;;2.33;;
15192;SDS011;7697;51.630;7.484;2022-11-23T10:35:43;6.95;;;2.15;;
15192;SDS011;7697;51.630;7.484;2022-11-23T10:40:45;6.45;;;1.70;;
15192;SDS011;7697;51.630;7.484;2022-11-23T10:51:30;3.80;;;1.60;;
15192;SDS011;7697;51.630;7.484;2022-11-23T10:56:33;7.93;;;2.20;;
15192;SDS011;7697;51.630;7.484;2022-11-23T11:01:35;4.57;;;2.05;;
15192;SDS011;7697;51.630;7.484;2022-11-23T11:06:38;5.07;;;1.95;;
15192;SDS011;7697;51.630;7.484;2022-11-23T11:11:44;8.75;;;2.10;;
15192;SDS011;7697;51.630;7.484;2022-11-23T11:16:48;4.80;;;2.28;;
15192;SDS011;7697;51.630;7.484;2022-11-23T11:21:52;6.13;;;2.20;;
15192;SDS011;7697;51.630;7.484;2022-11-23T11:26:56;8.43;;;2.20;;
15192;SDS011;7697;51.630;7.484;2022-11-23T11:31:59;7.72;;;1.88;;
15192;SDS011;7697;51.630;7.484;2022-11-23T11:37:08;6.85;;;2.10;;
15192;SDS011;7697;51.630;7.484;2022-11-23T11:42:15;4.32;;;2.00;;
15192;SDS011;7697;51.630;7.484;2022-11-23T11:47:22;7.97;;;3.30;;
15192;SDS011;7697;51.630;7.484;2022-11-23T11:52:31;9.68;;;3.25;;
15192;SDS011;7697;51.630;7.484;2022-11-23T11:57:39;7.93;;;2.42;;
15192;SDS011;7697;51.630;7.484;2022-11-23T12:02:48;6.07;;;2.63;;
15192;SDS011;7697;51.630;7.484;2022-11-23T12:08:00;7.90;;;2.95;;
15192;SDS011;7697;51.630;7.484;2022-11-23T12:13:07;8.73;;;2.80;;
15192;SDS011;7697;51.630;7.484;2022-11-23T12:18:15;5.80;;;2.10;;
15192;SDS011;7697;51.630;7.484;2022-11-23T12:23:33;11.95;;;4.55;;
15192;SDS011;7697;51.630;7.484;2022-11-23T12:28:52;4.68;;;1.88;;
15192;SDS011;7697;51.630;7.484;2022-11-23T12:34:09;4.78;;;2.17;;
15192;SDS011;7697;51.630;7.484;2022-11-23T12:39:22;4.63;;;1.75;;
15192;SDS011;7697;51.630;7.484;2022-11-23T12:44:53;4.85;;;2.10;;
15192;SDS011;7697;51.630;7.484;2022-11-23T12:50:06;6.07;;;1.85;;
15192;SDS011;7697;51.630;7.484;2022-11-23T12:55:19;5.30;;;2.08;;
15192;SDS011;7697;51.630;7.484;2022-11-23T13:00:24;5.10;;;2.17;;
15192;SDS011;7697;51.630;7.484;2022-11-23T13:05:37;6.72;;;2.45;;
15192;SDS011;7697;51.630;7.484;2022-11-23T13:10:59;5.55;;;2.17;;
15192;SDS011;7697;51.630;7.484;2022-11-23T13:21:42;7.75;;;3.38;;
15192;SDS011;7697;51.630;7.484;2022-11-23T13:26:47;11.20;;;4.85;;
15192;SDS011;7697;51.630;7.484;2022-11-23T13:32:40;6.75;;;2.92;;
15192;SDS011;7697;51.630;7.484;2022-11-23T13:43:23;6.20;;;2.92;;
15192;SDS011;7697;51.630;7.484;2022-11-23T13:48:29;4.45;;;2.53;;
15192;SDS011;7697;51.630;7.484;2022-11-23T13:53:31;6.18;;;2.40;;
15192;SDS011;7697;51.630;7.484;2022-11-23T13:58:36;6.47;;;2.65;;
15192;SDS011;7697;51.630;7.484;2022-11-23T14:03:48;5.10;;;2.05;;
15192;SDS011;7697;51.630;7.484;2022-11-23T14:08:53;3.97;;;2.08;;
15192;SDS011;7697;51.630;7.484;2022-11-23T14:14:02;6.60;;;2.38;;
15192;SDS011;7697;51.630;7.484;2022-11-23T14:19:10;3.60;;;1.80;;
15192;SDS011;7697;51.630;7.484;2022-11-23T14:35:48;4.85;;;1.88;;
15192;SDS011;7697;51.630;7.484;2022-11-23T14:41:00;4.50;;;1.85;;
15192;SDS011;7697;51.630;7.484;2022-11-23T14:46:12;5.85;;;2.00;;
15192;SDS011;7697;51.630;7.484;2022-11-23T14:51:17;4.97;;;1.80;;
15192;SDS011;7697;51.630;7.484;2022-11-23T14:56:21;7.57;;;2.30;;
15192;SDS011;7697;51.630;7.484;2022-11-23T15:01:32;4.80;;;1.73;;
15192;SDS011;7697;51.630;7.484;2022-11-23T15:06:37;5.15;;;1.95;;
15192;SDS011;7697;51.630;7.484;2022-11-23T15:11:42;7.03;;;2.00;;
15192;SDS011;7697;51.630;7.484;2022-11-23T15:16:44;3.45;;;1.90;;
15192;SDS011;7697;51.630;7.484;2022-11-23T15:21:47;5.00;;;1.80;;
15192;SDS011;7697;51.630;7.484;2022-11-23T15:26:49;6.00;;;1.92;;
15192;SDS011;7697;51.630;7.484;2022-11-23T15:31:51;2.63;;;1.73;;
15192;SDS011;7697;51.630;7.484;2022-11-23T15:36:55;4.38;;;1.90;;
15192;SDS011;7697;51.630;7.484;2022-11-23T15:41:57;3.72;;;1.83;;
15192;SDS011;7697;51.630;7.484;2022-11-23T15:46:59;3.70;;;1.95;;
15192;SDS011;7697;51.630;7.484;2022-11-23T15:52:09;4.75;;;1.92;;
15192;SDS011;7697;51.630;7.484;2022-11-23T15:57:16;4.22;;;2.03;;
15192;SDS011;7697;51.630;7.484;2022-11-23T16:02:23;3.17;;;1.65;;
15192;SDS011;7697;51.630;7.484;2022-11-23T16:07:29;6.45;;;1.80;;
15192;SDS011;7697;51.630;7.484;2022-11-23T16:12:31;3.15;;;1.60;;
15192;SDS011;7697;51.630;7.484;2022-11-23T16:17:34;3.33;;;1.50;;
15192;SDS011;7697;51.630;7.484;2022-11-23T16:22:39;5.75;;;1.85;;
15192;SDS011;7697;51.630;7.484;2022-11-23T16:27:55;4.15;;;1.90;;
15192;SDS011;7697;51.630;7.484;2022-11-23T16:32:57;5.03;;;1.95;;
15192;SDS011;7697;51.630;7.484;2022-11-23T16:38:00;3.97;;;1.90;;
15192;SDS011;7697;51.630;7.484;2022-11-23T16:43:02;4.25;;;1.83;;
15192;SDS011;7697;51.630;7.484;2022-11-23T16:48:04;5.70;;;1.45;;
15192;SDS011;7697;51.630;7.484;2022-11-23T16:53:38;3.80;;;1.60;;
15192;SDS011;7697;51.630;7.484;2022-11-23T16:58:41;4.35;;;1.92;;
15192;SDS011;7697;51.630;7.484;2022-11-23T17:03:43;3.67;;;1.90;;
15192;SDS011;7697;51.630;7.484;2022-11-23T17:08:46;5.60;;;2.13;;
15192;SDS011;7697;51.630;7.484;2022-11-23T17:13:49;4.22;;;2.28;;
15192;SDS011;7697;51.630;7.484;2022-11-23T17:18:53;5.18;;;2.10;;
15192;SDS011;7697;51.630;7.484;2022-11-23T17:23:56;3.55;;;1.65;;
15192;SDS011;7697;51.630;7.484;2022-11-23T17:28:58;3.42;;;1.50;;
15192;SDS011;7697;51.630;7.484;2022-11-23T17:34:02;3.10;;;2.30;;
15192;SDS011;7697;51.630;7.484;2022-11-23T17:39:05;4.25;;;1.83;;
15192;SDS011;7697;51.630;7.484;2022-11-23T17:44:07;4.93;;;1.90;;
15192;SDS011;7697;51.630;7.484;2022-11-23T17:49:11;6.60;;;2.08;;
15192;SDS011;7697;51.630;7.484;2022-11-23T17:54:16;5.15;;;2.05;;
15192;SDS011;7697;51.630;7.484;2022-11-23T17:59:18;3.90;;;1.73;;
15192;SDS011;7697;51.630;7.484;2022-11-23T18:04:19;5.72;;;1.65;;
15192;SDS011;7697;51.630;7.484;2022-11-23T18:09:23;4.53;;;1.75;;
15192;SDS011;7697;51.630;7.484;2022-11-23T18:14:25;6.93;;;1.98;;
15192;SDS011;7697;51.630;7.484;2022-11-23T18:19:27;4.40;;;1.92;;
15192;SDS011;7697;51.630;7.484;2022-11-23T18:24:31;7.47;;;2.28;;
15192;SDS011;7697;51.630;7.484;2022-11-23T18:29:32;3.55;;;1.50;;
15192;SDS011;7697;51.630;7.484;2022-11-23T18:34:35;2.53;;;1.40;;
15192;SDS011;7697;51.630;7.484;2022-11-23T18:39:38;2.55;;;1.50;;
15192;SDS011;7697;51.630;7.484;2022-11-23T18:44:40;3.22;;;1.60;;
15192;SDS011;7697;51.630;7.484;2022-11-23T18:49:42;3.78;;;1.63;;
15192;SDS011;7697;51.630;7.484;2022-11-23T18:54:45;4.03;;;1.63;;
15192;SDS011;7697;51.630;7.484;2022-11-23T18:59:46;1.98;;;1.45;;
15192;SDS011;7697;51.630;7.484;2022-11-23T19:04:48;3.50;;;1.40;;
15192;SDS011;7697;51.630;7.484;2022-11-23T19:09:51;2.50;;;1.67;;
15192;SDS011;7697;51.630;7.484;2022-11-23T19:14:53;2.30;;;1.30;;
15192;SDS011;7697;51.630;7.484;2022-11-23T19:19:55;2.53;;;1.10;;
15192;SDS011;7697;51.630;7.484;2022-11-23T19:24:57;3.35;;;1.35;;
15192;SDS011;7697;51.630;7.484;2022-11-23T19:29:59;3.58;;;1.67;;
15192;SDS011;7697;51.630;7.484;2022-11-23T19:35:01;3.33;;;1.50;;
15192;SDS011;7697;51.630;7.484;2022-11-23T19:40:05;3.92;;;1.70;;
15192;SDS011;7697;51.630;7.484;2022-11-23T19:45:08;2.07;;;1.30;;
15192;SDS011;7697;51.630;7.484;2022-11-23T19:50:10;4.75;;;1.48;;
15192;SDS011;7697;51.630;7.484;2022-11-23T19:55:13;2.08;;;1.50;;
15192;SDS011;7697;51.630;7.484;2022-11-23T20:00:15;5.82;;;1.98;;
15192;SDS011;7697;51.630;7.484;2022-11-23T20:05:17;5.30;;;1.90;;
15192;SDS011;7697;51.630;7.484;2022-11-23T20:10:21;2.08;;;1.50;;
15192;SDS011;7697;51.630;7.484;2022-11-23T20:15:23;4.78;;;2.00;;
15192;SDS011;7697;51.630;7.484;2022-11-23T20:20:24;5.55;;;2.50;;
15192;SDS011;7697;51.630;7.484;2022-11-23T20:25:28;3.40;;;1.88;;
15192;SDS011;7697;51.630;7.484;2022-11-23T20:30:30;3.47;;;2.08;;
15192;SDS011;7697;51.630;7.484;2022-11-23T20:35:33;3.17;;;1.80;;
15192;SDS011;7697;51.630;7.484;2022-11-23T20:40:36;2.65;;;1.75;;
15192;SDS011;7697;51.630;7.484;2022-11-23T20:45:38;3.20;;;1.60;;
15192;SDS011;7697;51.630;7.484;2022-11-23T20:50:39;4.03;;;2.40;;
15192;SDS011;7697;51.630;7.484;2022-11-23T20:55:43;4.97;;;1.80;;
15192;SDS011;7697;51.630;7.484;2022-11-23T21:00:45;3.97;;;2.15;;
15192;SDS011;7697;51.630;7.484;2022-11-23T21:05:47;4.00;;;2.00;;
15192;SDS011;7697;51.630;7.484;2022-11-23T21:10:50;4.93;;;2.22;;
15192;SDS011;7697;51.630;7.484;2022-11-23T21:16:10;3.85;;;2.10;;
15192;SDS011;7697;51.630;7.484;2022-11-23T21:21:12;3.08;;;2.28;;
15192;SDS011;7697;51.630;7.484;2022-11-23T21:26:14;4.22;;;2.08;;
15192;SDS011;7697;51.630;7.484;2022-11-23T21:31:16;8.70;;;4.95;;
15192;SDS011;7697;51.630;7.484;2022-11-23T21:36:18;6.53;;;3.55;;
15192;SDS011;7697;51.630;7.484;2022-11-23T21:41:22;4.43;;;2.80;;
15192;SDS011;7697;51.630;7.484;2022-11-23T21:46:24;5.45;;;2.63;;
15192;SDS011;7697;51.630;7.484;2022-11-23T21:51:27;7.67;;;2.83;;
15192;SDS011;7697;51.630;7.484;2022-11-23T21:56:31;5.17;;;2.80;;
15192;SDS011;7697;51.630;7.484;2022-11-23T22:01:34;10.43;;;3.67;;
15192;SDS011;7697;51.630;7.484;2022-11-23T22:06:37;6.00;;;3.03;;
15192;SDS011;7697;51.630;7.484;2022-11-23T22:11:42;9.23;;;3.78;;
15192;SDS011;7697;51.630;7.484;2022-11-23T22:16:45;9.07;;;3.53;;
15192;SDS011;7697;51.630;7.484;2022-11-23T22:21:48;8.40;;;3.40;;
15192;SDS011;7697;51.630;7.484;2022-11-23T22:26:51;11.05;;;3.60;;
15192;SDS011;7697;51.630;7.484;2022-11-23T22:31:53;12.82;;;4.35;;
15192;SDS011;7697;51.630;7.484;2022-11-23T22:36:55;9.75;;;3.72;;
15192;SDS011;7697;51.630;7.484;2022-11-23T22:41:58;11.30;;;3.65;;
15192;SDS011;7697;51.630;7.484;2022-11-23T22:47:00;7.03;;;3.60;;
15192;SDS011;7697;51.630;7.484;2022-11-23T22:52:01;8.55;;;3.63;;
15192;SDS011;7697;51.630;7.484;2022-11-23T22:57:04;8.80;;;3.65;;
15192;SDS011;7697;51.630;7.484;2022-11-23T23:02:06;10.02;;;3.58;;
15192;SDS011;7697;51.630;7.484;2022-11-23T23:07:07;7.32;;;3.15;;
15192;SDS011;7697;51.630;7.484;2022-11-23T23:12:11;8.85;;;4.07;;
15192;SDS011;7697;51.630;7.484;2022-11-23T23:17:12;7.55;;;3.08;;
15192;SDS011;7697;51.630;7.484;2022-11-23T23:22:14;7.93;;;2.90;;
15192;SDS011;7697;51.630;7.484;2022-11-23T23:27:17;8.40;;;2.85;;
15192;SDS011;7697;51.630;7.484;2022-11-23T23:32:19;13.02;;;3.28;;
15192;SDS011;7697;51.630;7.484;2022-11-23T23:37:21;12.68;;;3.22;;
15192;SDS011;7697;51.630;7.484;2022-11-23T23:42:25;15.77;;;3.58;;
15192;SDS011;7697;51.630;7.484;2022-11-23T23:47:26;12.25;;;3.70;;
15192;SDS011;7697;51.630;7.484;2022-11-23T23:52:28;10.73;;;4.03;;
15192;SDS011;7697;51.630;7.484;2022-11-23T23:57:31;10.35;;;3.63;;
